Aircraft CS-LTD Data

CS-LTD
2017 Cessna 680A Citation Latitude, c/n 680A-0097
Share Photo Links
Latest photos of CS-LTD
Aircraft CS-LTD, Landing rwy 32L, at LFBO, photo by Shunn311
Shunn311
@ LFBO
Aircraft CS-LTD, Parked at Technicair, at EGHH, photo by John Coates
John Coates
@ EGHH
Aircraft CS-LTD, Cessna 680A Citation Latitude, c/n: 680A-0097, at ELLX, photo by Jerzy Maciaszek
Jerzy Maciaszek
@ ELLX
Aircraft CS-LTD, Cessna 680 Citation Latitude - NJE NetJets Europe - 680A0097 - CS-LTD - 03.09.2018 - CGN, at EDDK, photo by Ralf Winter
Ralf Winter
@ EDDK
Recent Routes
NO LIVE DATA
Time Callsign FL Speed Heading Route
2026-09-06 17:08 UTC NJE652A 0 kt 45°
2026-09-06 13:42 UTC NJE015W 60 kt 68°
2026-09-06 10:30 UTC NJE118E FL34 214 kt 86°
2026-09-06 09:12 UTC NJE106D FL183 290 kt 198°
2026-09-05 12:08 UTC NJE795N 2 kt 113°
2026-09-05 10:08 UTC NJE733W FL9 100 kt 271°
2026-09-04 13:44 UTC NJE312A 15 kt 200°
2026-09-04 11:24 UTC NJE776U 10 kt 352°
2026-09-03 15:36 UTC NJE887K 10 kt 298°
2026-09-03 14:04 UTC NJE923A 8 kt 51°
2026-09-03 10:20 UTC NJE915D FL16 160 kt 184°
2026-09-02 12:48 UTC NJE672H 18 kt 79°
2026-09-02 07:42 UTC NJE927T FL-1 99 kt 268°
2026-09-02 06:08 UTC NJE616P FL17 108 kt 223°
2026-08-31 17:46 UTC NJE800Y 76 kt 236°
2026-08-31 14:24 UTC NJE185B 50 kt 354°
2026-08-31 12:32 UTC NJE798W 10 kt 352°
2026-08-31 09:56 UTC NJE320V FL5 15 kt 23°
2026-08-31 07:00 UTC NJE8RJ FL4 99 kt 241°
2026-08-30 14:56 UTC NJE135W 0 kt 236°
2026-08-29 12:26 UTC NJE854C FL13 107 kt 226°
2026-08-29 07:28 UTC NJE271C FL3 102 kt 265°
2026-08-28 18:42 UTC NJE294D FL13 0 kt
2026-08-23 10:58 UTC NJE109A 6 kt 203°
2026-08-23 08:02 UTC NJE140P 1 kt 135°
2026-08-21 14:28 UTC NJE658T FL5 98 kt 265°
2026-08-21 10:28 UTC NJE126E FL48 250 kt 154°
2026-08-17 17:48 UTC NJE655E FL3 97 kt 265°
2026-08-17 15:08 UTC NJE559E FL346 366 kt 333°
2026-08-17 10:14 UTC NJE954N 5 kt 208°
2026-08-16 15:36 UTC NJE322C 12 kt 174°
2026-08-16 11:52 UTC NJU218V 3 kt 318°
2026-08-16 08:50 UTC NJE813R FL116 170 kt 246°
2026-08-16 07:50 UTC NJE339T FL13 0 kt 287°
2026-08-14 15:58 UTC NJE278B FL252 424 kt 41°
2026-08-14 12:10 UTC NJE518N 11 kt 84°
2026-08-13 10:22 UTC NJE478F FL122 334 kt 328°
2026-08-13 09:32 UTC NJE496C FL4 0 kt 262°
2026-08-12 15:28 UTC NJE458M 13 kt 177°
2026-08-12 12:40 UTC NJE500M FL15 183 kt
2026-08-12 08:48 UTC NJE715M 0 kt 174°
2026-08-11 12:10 UTC NJE129F FL189 383 kt
2026-08-10 13:32 UTC NJE293H FL118 176 kt 246°
2026-08-09 15:16 UTC NJE394C 14 kt 93°
2026-08-09 14:40 UTC NJE814D 0 kt 352°
2026-08-08 12:04 UTC NJE662K FL17 174 kt 117°
2026-08-08 08:12 UTC NJE783N 10 kt 42°
2026-08-07 18:14 UTC NJE192H 15 kt 39°
2026-08-07 14:22 UTC NJE633Q FL5 108 kt 239°

Live location data from OpenSky Network

Airframe Info
Manufacturer Cessna
Model 680A Citation Latitude Search all Cessna 680A Citation Latitude
Year built 2017
Construction Number (C/N) 680A-0097
Aircraft Type Fixed wing multi engine
Number of Seats 13
Number of Engines 2
Engine Type Turbofan
Aircraft
Registration Number CS-LTD
Mode S (ICAO24) Code 493284
Current Status Registered
Delivery Date 2017-09-24
Owner
Owner Netjets Transportes Aereos
Address ,
Portugal